Airport View

Enter ICAO identifier to see the current METAR for that AWOS.

KFNL for example

KSFF 021053Z 05004KT 10SM CLR 12/06 A2989

2 Sep 2014 11:31

Phone: 509-624-4406

Other Area AWOS: KGEG - KSKA - KDEW - KCOE

TAF KSFF 020520Z 0206/0306 VRB03KT P6SM SCT250 FM021500 19005KT P6SM BKN200 FM022000 23010G18KT P6SM FEW060 BKN200 FM030400 24014G22KT P6SM VCSH FEW050 BKN100